Time;durP1;ratioP1;P1;durP2;ratioP2;P2;SDS_P1;SDS_P2;PMS_P1;PMS_P2;Temp;Humidity;BMP_temperature;BMP_pressure;BME280_temperature;BME280_humidity;BME280_pressure;Samples;Min_cycle;Max_cycle;Signal;HPM_P1;HPM_P2
2023/01/11 00:00:01;;;;;;;;;;;;;;;;;;5030085;28;19917;-46
2023/01/11 00:02:26;;;;;;;;;;;;;;;;;;5028649;28;19928;-42
2023/01/11 00:04:52;;;;;;;;;;;;;;;;;;5031831;28;19921;-45
2023/01/11 00:07:17;;;;;;;;;;;;;;;;;;5030408;28;19921;-42
2023/01/11 00:09:43;;;;;;;;;;;;;;;;;;5028171;28;19917;-43
2023/01/11 00:12:11;;;;;;;;;;;;;;;;;;5030006;28;19921;-44
2023/01/11 00:14:36;;;;;;;;;;;;;;;;;;5030355;28;19917;-42
2023/01/11 00:17:01;;;;;;;;;;;;;;;;;;5031665;28;19925;-51
2023/01/11 00:19:26;;;;;;;;;;;;;;;;;;5028454;28;19924;-43
2023/01/11 00:21:52;;;;;;;;;;;;;;;;;;5030238;28;20476;-43
2023/01/11 00:24:17;;;;;;;;;;;;;;;;;;5024627;28;19936;-46
2023/01/11 00:26:42;;;;;;;;;;;;;;;;;;5031673;28;20010;-44
2023/01/11 00:29:08;;;;;;;;;;;;;;;;;;5027850;28;19921;-44
2023/01/11 00:31:33;;;;;;;;;;;;;;;;;;5030693;28;20402;-43
2023/01/11 00:33:59;;;;;;;;;;;;;;;;;;5029049;28;19921;-46
2023/01/11 00:36:24;;;;;;;;;;;;;;;;;;5030858;28;19913;-44
2023/01/11 00:38:54;;;;;;;;;;;;;;;;;;5029596;28;20413;-43
2023/01/11 00:49:32;;;;;;;;;;;;;;;;;;5028932;28;19944;-43
2023/01/11 00:51:57;;;;;;;;;;;;;;;;;;5029789;28;20376;-44
2023/01/11 00:54:22;;;;;;;;;;;;;;;;;;5027818;28;19921;-46
2023/01/11 00:56:48;;;;;;;;;;;;;;;;;;5029810;28;19917;-44
2023/01/11 00:59:13;;;;;;;;;;;;;;;;;;5026448;28;19964;-48
2023/01/11 01:01:38;;;;;;;;;;;;;;;;;;5029682;28;19970;-42
2023/01/11 01:04:04;;;;;;;;;;;;;;;;;;5027271;28;19927;-44
2023/01/11 01:06:29;;;;;;;;;;;;;;;;;;5029982;28;19917;-45
2023/01/11 01:08:55;;;;;;;;;;;;;;;;;;5028162;28;19992;-43
2023/01/11 01:11:20;;;;;;;;;;;;;;;;;;5028036;28;19921;-43
2023/01/11 01:16:31;;;;;;;;;;;;;;;;;;5026244;28;19971;-44
2023/01/11 01:18:56;;;;;;;;;;;;;;;;;;5028817;28;20357;-47
2023/01/11 01:21:22;;;;;;;;;;;;;;;;;;5027108;28;19944;-46
2023/01/11 01:23:47;;;;;;;;;;;;;;;;;;5027613;28;19925;-43
2023/01/11 01:26:13;;;;;;;;;;;;;;;;;;5028628;28;20032;-42
2023/01/11 01:28:38;;;;;;;;;;;;;;;;;;5028982;28;19928;-46
2023/01/11 01:31:04;;;;;;;;;;;;;;;;;;5023457;28;19963;-43
2023/01/11 01:33:29;;;;;;;;;;;;;;;;;;5025645;28;19968;-43
2023/01/11 01:35:54;;;;;;;;;;;;;;;;;;5029711;28;19924;-46
2023/01/11 01:38:19;;;;;;;;;;;;;;;;;;5030348;28;20348;-44
2023/01/11 01:40:47;;;;;;;;;;;;;;;;;;5029379;28;19924;-46
2023/01/11 01:43:13;;;;;;;;;;;;;;;;;;5028836;28;19921;-44
2023/01/11 01:45:40;;;;;;;;;;;;;;;;;;5028202;28;19917;-43
2023/01/11 01:48:05;;;;;;;;;;;;;;;;;;5029269;28;19921;-43
2023/01/11 01:50:37;;;;;;;;;;;;;;;;;;5026251;28;19963;-45
2023/01/11 01:53:22;;;;;;;;;;;;;;;;;;5027337;28;20574;-46
2023/01/11 01:55:50;;;;;;;;;;;;;;;;;;5027744;28;19928;-42
2023/01/11 01:58:18;;;;;;;;;;;;;;;;;;5028415;28;19936;-48
2023/01/11 02:00:44;;;;;;;;;;;;;;;;;;5027876;28;19913;-43
2023/01/11 02:03:12;;;;;;;;;;;;;;;;;;5029240;28;19928;-42
2023/01/11 02:05:38;;;;;;;;;;;;;;;;;;5026545;28;19917;-43
2023/01/11 02:08:06;;;;;;;;;;;;;;;;;;5029147;28;20463;-42
2023/01/11 02:10:31;;;;;;;;;;;;;;;;;;5026607;28;19927;-46
2023/01/11 02:12:58;;;;;;;;;;;;;;;;;;5028383;28;20020;-44
2023/01/11 02:15:23;;;;;;;;;;;;;;;;;;5029313;28;19925;-43
2023/01/11 02:17:49;;;;;;;;;;;;;;;;;;5027841;28;20293;-46
2023/01/11 02:20:26;;;;;;;;;;;;;;;;;;5027494;28;19967;-43
2023/01/11 02:23:10;;;;;;;;;;;;;;;;;;5028850;28;19921;-48
2023/01/11 02:25:54;;;;;;;;;;;;;;;;;;5026107;28;19921;-45
2023/01/11 02:28:40;;;;;;;;;;;;;;;;;;5024583;28;19921;-46
2023/01/11 02:31:09;;;;;;;;;;;;;;;;;;5023008;28;19927;-44
2023/01/11 02:33:40;;;;;;;;;;;;;;;;;;5027701;28;19925;-45
2023/01/11 02:36:11;;;;;;;;;;;;;;;;;;5028175;28;19940;-43
2023/01/11 02:38:49;;;;;;;;;;;;;;;;;;5026340;28;19933;-44
2023/01/11 02:41:17;;;;;;;;;;;;;;;;;;5025856;28;19924;-46
2023/01/11 02:46:41;;;;;;;;;;;;;;;;;;5027671;28;19924;-44
2023/01/11 02:49:15;;;;;;;;;;;;;;;;;;5026868;28;20031;-46
2023/01/11 02:51:54;;;;;;;;;;;;;;;;;;5026802;28;20055;-42
2023/01/11 02:54:21;;;;;;;;;;;;;;;;;;5027867;28;19988;-43
2023/01/11 02:56:47;;;;;;;;;;;;;;;;;;5028857;28;20028;-47
2023/01/11 02:59:15;;;;;;;;;;;;;;;;;;5021975;28;20392;-44
2023/01/11 03:01:45;;;;;;;;;;;;;;;;;;5028906;28;20373;-43
2023/01/11 03:04:24;;;;;;;;;;;;;;;;;;5027635;28;19920;-46
2023/01/11 03:06:53;;;;;;;;;;;;;;;;;;5032682;28;19920;-43
2023/01/11 03:09:44;;;;;;;;;;;;;;;;;;5030195;28;19929;-42
2023/01/11 03:15:10;;;;;;;;;;;;;;;;;;5019666;28;19956;-42
2023/01/11 03:17:48;;;;;;;;;;;;;;;;;;5010023;28;19925;-43
2023/01/11 03:20:16;;;;;;;;;;;;;;;;;;5017358;28;20012;-45
2023/01/11 03:22:47;;;;;;;;;;;;;;;;;;5015700;28;20007;-43
2023/01/11 03:25:15;;;;;;;;;;;;;;;;;;5015966;28;20401;-42
2023/01/11 03:27:56;;;;;;;;;;;;;;;;;;5019080;28;19929;-48
2023/01/11 03:30:25;;;;;;;;;;;;;;;;;;5016805;28;20392;-42
2023/01/11 03:32:57;;;;;;;;;;;;;;;;;;5017052;28;20377;-42
2023/01/11 03:35:35;;;;;;;;;;;;;;;;;;5019179;28;19970;-46
2023/01/11 03:38:02;;;;;;;;;;;;;;;;;;5014191;28;20036;-42
2023/01/11 03:40:29;;;;;;;;;;;;;;;;;;5015387;28;19960;-43
2023/01/11 03:43:12;;;;;;;;;;;;;;;;;;5017103;28;19928;-44
2023/01/11 03:45:46;;;;;;;;;;;;;;;;;;5019380;28;19948;-43
2023/01/11 03:48:14;;;;;;;;;;;;;;;;;;5019568;28;20602;-42
2023/01/11 03:50:40;;;;;;;;;;;;;;;;;;5028902;28;20395;-43
2023/01/11 03:53:05;;;;;;;;;;;;;;;;;;5029579;28;19921;-44
2023/01/11 03:55:33;;;;;;;;;;;;;;;;;;5031483;28;19924;-42
2023/01/11 03:57:59;;;;;;;;;;;;;;;;;;5029497;28;20405;-43
2023/01/11 04:00:25;;;;;;;;;;;;;;;;;;5028634;28;19999;-44
2023/01/11 04:02:52;;;;;;;;;;;;;;;;;;5030619;28;19928;-44
2023/01/11 04:05:18;;;;;;;;;;;;;;;;;;5028890;28;19917;-42
2023/01/11 04:07:43;;;;;;;;;;;;;;;;;;5025273;28;19975;-43
2023/01/11 04:10:08;;;;;;;;;;;;;;;;;;5029715;28;20022;-45
2023/01/11 04:12:34;;;;;;;;;;;;;;;;;;5030334;28;19928;-43
2023/01/11 04:15:01;;;;;;;;;;;;;;;;;;5033482;28;20333;-45
2023/01/11 04:17:27;;;;;;;;;;;;;;;;;;5028226;28;19929;-44
2023/01/11 04:19:52;;;;;;;;;;;;;;;;;;5029384;28;19971;-45
2023/01/11 04:22:17;;;;;;;;;;;;;;;;;;5029305;28;19947;-42
2023/01/11 04:24:43;;;;;;;;;;;;;;;;;;5032509;28;19978;-42
2023/01/11 04:27:08;;;;;;;;;;;;;;;;;;5027635;28;19932;-43
2023/01/11 04:29:33;;;;;;;;;;;;;;;;;;5030470;28;19917;-44
2023/01/11 04:31:58;;;;;;;;;;;;;;;;;;5028297;28;19924;-43
2023/01/11 04:34:24;;;;;;;;;;;;;;;;;;5028688;28;19921;-43
2023/01/11 04:36:49;;;;;;;;;;;;;;;;;;5027420;28;19921;-44
2023/01/11 04:39:14;;;;;;;;;;;;;;;;;;5027360;28;19921;-44
2023/01/11 04:44:24;;;;;;;;;;;;;;;;;;5029266;28;20301;-43
2023/01/11 04:46:49;;;;;;;;;;;;;;;;;;5029894;28;19917;-45
2023/01/11 04:49:14;;;;;;;;;;;;;;;;;;5028614;28;19928;-42
2023/01/11 04:51:40;;;;;;;;;;;;;;;;;;5027067;28;19928;-41
2023/01/11 04:54:05;;;;;;;;;;;;;;;;;;5028784;28;19929;-43
2023/01/11 04:56:30;;;;;;;;;;;;;;;;;;5027077;28;19972;-43
2023/01/11 04:58:56;;;;;;;;;;;;;;;;;;5029008;28;19929;-42
2023/01/11 05:01:21;;;;;;;;;;;;;;;;;;5030997;28;20325;-43
2023/01/11 05:03:46;;;;;;;;;;;;;;;;;;5027918;28;19977;-45
2023/01/11 05:06:12;;;;;;;;;;;;;;;;;;5026483;28;19928;-43
2023/01/11 05:08:38;;;;;;;;;;;;;;;;;;5028456;28;19921;-44
2023/01/11 05:11:06;;;;;;;;;;;;;;;;;;5028316;28;19920;-43
2023/01/11 05:13:41;;;;;;;;;;;;;;;;;;5028316;28;20365;-42
2023/01/11 05:16:18;;;;;;;;;;;;;;;;;;5027831;28;19921;-43
2023/01/11 05:18:45;;;;;;;;;;;;;;;;;;5025707;28;19921;-43
2023/01/11 05:21:11;;;;;;;;;;;;;;;;;;5032334;28;19926;-42
2023/01/11 05:23:37;;;;;;;;;;;;;;;;;;5027567;28;19928;-43
2023/01/11 05:26:06;;;;;;;;;;;;;;;;;;5028434;28;19917;-43
2023/01/11 05:28:32;;;;;;;;;;;;;;;;;;5026681;28;19929;-43
2023/01/11 05:30:57;;;;;;;;;;;;;;;;;;5030873;28;20042;-43
2023/01/11 05:33:22;;;;;;;;;;;;;;;;;;5025507;28;19967;-45
2023/01/11 05:35:48;;;;;;;;;;;;;;;;;;5028335;28;19963;-42
2023/01/11 05:38:13;;;;;;;;;;;;;;;;;;5027208;28;19925;-42
2023/01/11 05:40:38;;;;;;;;;;;;;;;;;;5023243;28;19999;-42
2023/01/11 05:43:04;;;;;;;;;;;;;;;;;;5026563;28;21046;-43
2023/01/11 05:45:31;;;;;;;;;;;;;;;;;;5027475;28;20504;-43
2023/01/11 05:48:00;;;;;;;;;;;;;;;;;;5026942;28;20378;-44
2023/01/11 05:50:25;;;;;;;;;;;;;;;;;;5029178;28;19923;-46
2023/01/11 05:52:50;;;;;;;;;;;;;;;;;;5031746;28;19921;-44
2023/01/11 05:55:15;;;;;;;;;;;;;;;;;;5028728;28;20297;-44
2023/01/11 05:57:41;;;;;;;;;;;;;;;;;;5026461;28;19925;-42
2023/01/11 06:00:07;;;;;;;;;;;;;;;;;;5027819;28;19921;-46
2023/01/11 06:02:35;;;;;;;;;;;;;;;;;;5023998;28;20351;-50
2023/01/11 06:05:00;;;;;;;;;;;;;;;;;;5023644;28;19976;-44
2023/01/11 06:07:26;;;;;;;;;;;;;;;;;;5023754;28;19956;-47
2023/01/11 06:09:51;;;;;;;;;;;;;;;;;;5028056;28;19921;-43
2023/01/11 06:12:16;;;;;;;;;;;;;;;;;;5026548;28;19924;-43
2023/01/11 06:14:42;;;;;;;;;;;;;;;;;;5024869;28;19932;-45
2023/01/11 06:17:07;;;;;;;;;;;;;;;;;;5023024;28;20467;-43
2023/01/11 06:19:32;;;;;;;;;;;;;;;;;;5023897;28;19963;-42
2023/01/11 06:21:57;;;;;;;;;;;;;;;;;;5024720;28;19917;-49
2023/01/11 06:24:23;;;;;;;;;;;;;;;;;;5024849;28;19929;-45
2023/01/11 06:26:52;;;;;;;;;;;;;;;;;;5024855;28;19921;-45
2023/01/11 06:29:18;;;;;;;;;;;;;;;;;;5023490;28;19979;-42
2023/01/11 06:31:43;;;;;;;;;;;;;;;;;;5021114;28;19922;-43
2023/01/11 06:34:08;;;;;;;;;;;;;;;;;;5024168;28;20390;-43
2023/01/11 06:36:34;;;;;;;;;;;;;;;;;;5027408;28;19917;-42
2023/01/11 06:38:59;;;;;;;;;;;;;;;;;;5026915;28;20687;-44
2023/01/11 06:41:24;;;;;;;;;;;;;;;;;;5029668;28;20312;-42
2023/01/11 06:43:50;;;;;;;;;;;;;;;;;;5024304;28;19921;-44
2023/01/11 06:46:15;;;;;;;;;;;;;;;;;;5027350;28;19917;-42
2023/01/11 06:48:41;;;;;;;;;;;;;;;;;;5027766;28;20007;-46
2023/01/11 06:51:06;;;;;;;;;;;;;;;;;;5028361;28;19928;-42
2023/01/11 06:53:31;;;;;;;;;;;;;;;;;;5026281;28;19921;-43
2023/01/11 06:55:57;;;;;;;;;;;;;;;;;;5026257;28;19974;-44
2023/01/11 06:58:23;;;;;;;;;;;;;;;;;;5026437;28;19928;-45
2023/01/11 07:00:48;;;;;;;;;;;;;;;;;;5026887;28;19971;-42
2023/01/11 07:03:13;;;;;;;;;;;;;;;;;;5026867;28;19920;-43
2023/01/11 07:05:39;;;;;;;;;;;;;;;;;;5025100;28;20066;-42
2023/01/11 07:08:05;;;;;;;;;;;;;;;;;;5026925;28;19928;-44
2023/01/11 07:10:30;;;;;;;;;;;;;;;;;;5024764;28;19923;-43
2023/01/11 07:12:55;;;;;;;;;;;;;;;;;;5028037;28;19948;-44
2023/01/11 07:15:21;;;;;;;;;;;;;;;;;;5026075;28;19917;-45
2023/01/11 07:17:48;;;;;;;;;;;;;;;;;;5025553;28;20031;-42
2023/01/11 07:20:13;;;;;;;;;;;;;;;;;;5025006;28;19924;-44
2023/01/11 07:22:39;;;;;;;;;;;;;;;;;;5023707;28;19921;-42
2023/01/11 07:25:05;;;;;;;;;;;;;;;;;;5025568;28;20004;-45
2023/01/11 07:27:30;;;;;;;;;;;;;;;;;;5024927;28;19921;-44
2023/01/11 07:29:58;;;;;;;;;;;;;;;;;;5025515;28;20301;-45
2023/01/11 07:32:24;;;;;;;;;;;;;;;;;;5038114;28;20373;-45
2023/01/11 07:34:49;;;;;;;;;;;;;;;;;;5028060;28;20021;-43
2023/01/11 07:37:14;;;;;;;;;;;;;;;;;;5027042;28;20370;-43
2023/01/11 07:39:40;;;;;;;;;;;;;;;;;;5026680;28;19924;-42
2023/01/11 07:44:48;;;;;;;;;;;;;;;;;;5024627;28;19940;-45
2023/01/11 07:47:14;;;;;;;;;;;;;;;;;;5026277;28;19917;-43
2023/01/11 07:49:39;;;;;;;;;;;;;;;;;;5032630;28;19925;-42
2023/01/11 07:52:04;;;;;;;;;;;;;;;;;;5031420;28;19917;-42
2023/01/11 07:54:30;;;;;;;;;;;;;;;;;;5029201;28;19939;-46
2023/01/11 07:56:55;;;;;;;;;;;;;;;;;;5032578;28;19925;-43
2023/01/11 07:59:21;;;;;;;;;;;;;;;;;;5030520;28;19975;-43
2023/01/11 08:01:46;;;;;;;;;;;;;;;;;;5027792;28;19921;-44
2023/01/11 08:04:13;;;;;;;;;;;;;;;;;;5028839;28;19932;-44
2023/01/11 08:06:38;;;;;;;;;;;;;;;;;;5029485;28;20334;-41
2023/01/11 08:09:04;;;;;;;;;;;;;;;;;;5029658;28;20023;-42
2023/01/11 08:16:57;;;;;;;;;;;;;;;;;;5030447;28;19924;-42
2023/01/11 08:19:22;;;;;;;;;;;;;;;;;;5028187;28;19921;-43
2023/01/11 08:21:48;;;;;;;;;;;;;;;;;;5029075;28;19917;-42
2023/01/11 08:24:14;;;;;;;;;;;;;;;;;;5028395;28;19944;-42
2023/01/11 08:26:39;;;;;;;;;;;;;;;;;;5028522;28;19917;-45
2023/01/11 08:29:04;;;;;;;;;;;;;;;;;;5027484;28;20297;-45
2023/01/11 08:31:30;;;;;;;;;;;;;;;;;;5030834;28;19968;-43
2023/01/11 08:33:55;;;;;;;;;;;;;;;;;;5025538;28;19972;-43
2023/01/11 08:36:20;;;;;;;;;;;;;;;;;;5029035;28;19971;-42
2023/01/11 08:38:45;;;;;;;;;;;;;;;;;;5029533;28;19924;-42
2023/01/11 08:41:11;;;;;;;;;;;;;;;;;;5031811;28;19917;-42
2023/01/11 08:43:40;;;;;;;;;;;;;;;;;;5028107;28;19921;-44
2023/01/11 08:46:05;;;;;;;;;;;;;;;;;;5030582;28;20383;-43
2023/01/11 08:48:31;;;;;;;;;;;;;;;;;;5023690;28;19921;-42
2023/01/11 08:50:56;;;;;;;;;;;;;;;;;;5024827;28;20403;-43
2023/01/11 08:53:21;;;;;;;;;;;;;;;;;;5027876;28;19932;-43
2023/01/11 08:55:47;;;;;;;;;;;;;;;;;;5027020;28;19913;-43
2023/01/11 08:58:12;;;;;;;;;;;;;;;;;;5027922;28;19920;-44
2023/01/11 09:00:38;;;;;;;;;;;;;;;;;;5027772;28;19913;-42
2023/01/11 09:03:03;;;;;;;;;;;;;;;;;;5025993;28;21025;-44
2023/01/11 09:05:28;;;;;;;;;;;;;;;;;;5025805;28;19971;-42
2023/01/11 09:07:54;;;;;;;;;;;;;;;;;;5027490;28;19928;-43
2023/01/11 09:10:19;;;;;;;;;;;;;;;;;;5025770;28;19921;-44
2023/01/11 09:12:44;;;;;;;;;;;;;;;;;;5028363;28;20011;-43
2023/01/11 09:15:10;;;;;;;;;;;;;;;;;;5028476;28;20390;-45
2023/01/11 09:17:35;;;;;;;;;;;;;;;;;;5025651;28;19928;-42
2023/01/11 09:20:00;;;;;;;;;;;;;;;;;;5026848;28;19925;-42
2023/01/11 09:22:26;;;;;;;;;;;;;;;;;;5026530;28;19951;-44
2023/01/11 09:24:51;;;;;;;;;;;;;;;;;;5025586;28;19920;-43
2023/01/11 09:27:17;;;;;;;;;;;;;;;;;;5025980;28;19968;-46
2023/01/11 09:29:43;;;;;;;;;;;;;;;;;;5027899;28;19916;-48
2023/01/11 09:32:08;;;;;;;;;;;;;;;;;;5026041;28;20281;-47
2023/01/11 09:34:34;;;;;;;;;;;;;;;;;;5028197;28;19966;-49
2023/01/11 09:37:02;;;;;;;;;;;;;;;;;;5028159;28;19971;-44
2023/01/11 09:39:28;;;;;;;;;;;;;;;;;;5025510;28;19920;-49
2023/01/11 09:42:10;;;;;;;;;;;;;;;;;;5031296;28;20400;-50
2023/01/11 09:44:44;;;;;;;;;;;;;;;;;;5025499;28;20031;-45
2023/01/11 09:47:12;;;;;;;;;;;;;;;;;;5028081;28;19917;-47
2023/01/11 09:49:40;;;;;;;;;;;;;;;;;;5004295;28;19917;-51
2023/01/11 09:52:17;;;;;;;;;;;;;;;;;;5007122;28;19917;-44
2023/01/11 09:54:44;;;;;;;;;;;;;;;;;;5024991;28;19928;-45
2023/01/11 09:57:22;;;;;;;;;;;;;;;;;;5027789;28;20009;-44
2023/01/11 09:59:59;;;;;;;;;;;;;;;;;;5007216;28;19963;-45
2023/01/11 10:02:35;;;;;;;;;;;;;;;;;;5003820;28;19917;-45
2023/01/11 10:05:22;;;;;;;;;;;;;;;;;;5008472;28;20004;-45
2023/01/11 10:08:02;;;;;;;;;;;;;;;;;;5013495;28;19921;-44
2023/01/11 10:10:42;;;;;;;;;;;;;;;;;;5028702;28;19921;-46
2023/01/11 10:13:26;;;;;;;;;;;;;;;;;;5025951;28;19932;-51
2023/01/11 10:15:54;;;;;;;;;;;;;;;;;;5029833;28;19917;-43
2023/01/11 10:18:22;;;;;;;;;;;;;;;;;;5027420;28;20055;-43
2023/01/11 10:20:51;;;;;;;;;;;;;;;;;;5025026;28;20461;-43
2023/01/11 10:23:23;;;;;;;;;;;;;;;;;;5026663;28;20001;-48
2023/01/11 10:25:54;;;;;;;;;;;;;;;;;;5027408;28;19918;-43
2023/01/11 10:28:34;;;;;;;;;;;;;;;;;;5025567;28;20026;-45
2023/01/11 10:31:25;;;;;;;;;;;;;;;;;;5028712;28;19964;-46
2023/01/11 10:34:15;;;;;;;;;;;;;;;;;;5024951;28;19971;-44
2023/01/11 10:42:24;;;;;;;;;;;;;;;;;;5026916;28;19983;-48
2023/01/11 10:44:56;;;;;;;;;;;;;;;;;;5026587;28;19924;-44
2023/01/11 10:47:26;;;;;;;;;;;;;;;;;;5024540;28;19921;-44
2023/01/11 10:50:12;;;;;;;;;;;;;;;;;;5028512;28;19944;-47
2023/01/11 10:52:40;;;;;;;;;;;;;;;;;;5020889;28;19960;-48
2023/01/11 10:55:13;;;;;;;;;;;;;;;;;;5004539;28;20277;-49
2023/01/11 10:57:44;;;;;;;;;;;;;;;;;;5003392;28;19928;-47
2023/01/11 11:00:24;;;;;;;;;;;;;;;;;;5008338;28;19987;-49
2023/01/11 11:02:56;;;;;;;;;;;;;;;;;;5003442;28;19921;-47
2023/01/11 11:05:39;;;;;;;;;;;;;;;;;;5002558;28;19925;-48
2023/01/11 11:08:25;;;;;;;;;;;;;;;;;;5006752;28;20390;-44
2023/01/11 11:11:09;;;;;;;;;;;;;;;;;;5006522;28;19961;-44
2023/01/11 11:13:39;;;;;;;;;;;;;;;;;;5005865;28;19953;-49
2023/01/11 11:16:07;;;;;;;;;;;;;;;;;;5003717;28;19917;-46
2023/01/11 11:18:33;;;;;;;;;;;;;;;;;;5007447;28;19953;-51
2023/01/11 11:21:01;;;;;;;;;;;;;;;;;;5009323;28;20356;-46
2023/01/11 11:23:27;;;;;;;;;;;;;;;;;;5010372;28;19925;-49
2023/01/11 11:25:58;;;;;;;;;;;;;;;;;;5007125;28;19989;-45
2023/01/11 11:28:28;;;;;;;;;;;;;;;;;;5007726;28;20381;-44
2023/01/11 11:30:55;;;;;;;;;;;;;;;;;;5009822;28;20032;-44
2023/01/11 11:33:23;;;;;;;;;;;;;;;;;;5017316;28;20357;-43
2023/01/11 11:35:56;;;;;;;;;;;;;;;;;;5031091;28;19963;-43
2023/01/11 11:38:26;;;;;;;;;;;;;;;;;;5027609;28;19925;-48
2023/01/11 11:41:02;;;;;;;;;;;;;;;;;;5030319;28;19964;-49
2023/01/11 11:43:28;;;;;;;;;;;;;;;;;;5028634;28;19929;-43
2023/01/11 11:46:01;;;;;;;;;;;;;;;;;;5029672;28;19928;-41
2023/01/11 11:48:27;;;;;;;;;;;;;;;;;;5027168;28;19929;-42
2023/01/11 11:50:54;;;;;;;;;;;;;;;;;;5029355;28;19921;-46
2023/01/11 11:53:19;;;;;;;;;;;;;;;;;;5029394;28;19921;-42
2023/01/11 11:55:45;;;;;;;;;;;;;;;;;;5028009;28;19917;-45
2023/01/11 11:58:13;;;;;;;;;;;;;;;;;;5026129;28;19957;-44
2023/01/11 12:00:48;;;;;;;;;;;;;;;;;;5028430;28;19916;-50
2023/01/11 12:03:19;;;;;;;;;;;;;;;;;;5028128;28;19924;-50
2023/01/11 12:05:52;;;;;;;;;;;;;;;;;;5025395;28;19925;-42
2023/01/11 12:08:17;;;;;;;;;;;;;;;;;;5029182;28;19931;-42
2023/01/11 12:10:48;;;;;;;;;;;;;;;;;;5030315;28;19921;-44
2023/01/11 12:13:43;;;;;;;;;;;;;;;;;;5028516;28;20002;-45
2023/01/11 12:16:19;;;;;;;;;;;;;;;;;;5024989;28;19917;-43
2023/01/11 12:18:44;;;;;;;;;;;;;;;;;;5031860;28;19981;-46
2023/01/11 12:21:24;;;;;;;;;;;;;;;;;;5027954;28;20007;-45
2023/01/11 12:24:07;;;;;;;;;;;;;;;;;;5026822;28;20321;-43
2023/01/11 12:26:36;;;;;;;;;;;;;;;;;;5028801;28;19917;-45
2023/01/11 12:29:16;;;;;;;;;;;;;;;;;;5028628;28;19928;-42
2023/01/11 12:31:42;;;;;;;;;;;;;;;;;;5024217;28;19921;-44
2023/01/11 12:34:07;;;;;;;;;;;;;;;;;;5029734;28;19933;-43
2023/01/11 12:36:51;;;;;;;;;;;;;;;;;;5030202;28;19924;-43
2023/01/11 12:39:28;;;;;;;;;;;;;;;;;;5027959;28;19947;-43
2023/01/11 12:42:12;;;;;;;;;;;;;;;;;;5029065;28;19917;-43
2023/01/11 12:44:56;;;;;;;;;;;;;;;;;;5029812;28;19967;-43
2023/01/11 12:47:40;;;;;;;;;;;;;;;;;;5027203;28;19924;-47
2023/01/11 12:50:34;;;;;;;;;;;;;;;;;;5007359;28;19921;-43
2023/01/11 12:53:09;;;;;;;;;;;;;;;;;;5014364;28;19935;-44
2023/01/11 12:55:40;;;;;;;;;;;;;;;;;;5024475;28;20298;-43
2023/01/11 12:58:10;;;;;;;;;;;;;;;;;;5021604;28;19928;-46
2023/01/11 13:00:41;;;;;;;;;;;;;;;;;;5008172;28;19925;-43
2023/01/11 13:03:19;;;;;;;;;;;;;;;;;;5016700;28;19956;-46
2023/01/11 13:05:56;;;;;;;;;;;;;;;;;;5030553;28;19917;-43
2023/01/11 13:08:41;;;;;;;;;;;;;;;;;;5018630;28;19921;-41
2023/01/11 13:11:09;;;;;;;;;;;;;;;;;;5009988;28;19921;-44
2023/01/11 13:13:47;;;;;;;;;;;;;;;;;;5007283;28;19921;-45
2023/01/11 13:16:13;;;;;;;;;;;;;;;;;;5005500;28;20044;-43
2023/01/11 13:18:57;;;;;;;;;;;;;;;;;;5008895;28;20000;-43
2023/01/11 13:21:32;;;;;;;;;;;;;;;;;;5005694;28;19921;-44
2023/01/11 13:24:14;;;;;;;;;;;;;;;;;;5007721;28;19976;-43
2023/01/11 13:26:49;;;;;;;;;;;;;;;;;;5010324;28;19917;-43
2023/01/11 13:29:17;;;;;;;;;;;;;;;;;;5008791;28;19917;-46
2023/01/11 13:31:44;;;;;;;;;;;;;;;;;;5010969;28;19921;-46
2023/01/11 13:34:23;;;;;;;;;;;;;;;;;;5005427;28;19921;-43
2023/01/11 13:36:54;;;;;;;;;;;;;;;;;;5009294;28;19917;-43
2023/01/11 13:39:27;;;;;;;;;;;;;;;;;;5007033;28;20313;-45
2023/01/11 13:41:54;;;;;;;;;;;;;;;;;;5007446;28;19921;-43
2023/01/11 13:44:21;;;;;;;;;;;;;;;;;;5023551;28;19928;-46
2023/01/11 13:46:49;;;;;;;;;;;;;;;;;;5025391;28;19921;-46
2023/01/11 13:49:19;;;;;;;;;;;;;;;;;;5029560;28;20344;-45
2023/01/11 13:51:49;;;;;;;;;;;;;;;;;;5028947;28;19920;-43
2023/01/11 13:54:20;;;;;;;;;;;;;;;;;;5028242;28;20412;-49
2023/01/11 13:56:51;;;;;;;;;;;;;;;;;;5028480;28;20445;-43
2023/01/11 13:59:19;;;;;;;;;;;;;;;;;;5025785;28;19925;-43
2023/01/11 14:01:54;;;;;;;;;;;;;;;;;;5024002;28;19924;-43
2023/01/11 14:04:38;;;;;;;;;;;;;;;;;;5026957;28;19925;-43
2023/01/11 14:07:09;;;;;;;;;;;;;;;;;;5027557;28;19924;-47
2023/01/11 14:09:53;;;;;;;;;;;;;;;;;;5026510;28;19928;-44
2023/01/11 14:12:37;;;;;;;;;;;;;;;;;;5025071;28;20012;-46
2023/01/11 14:15:05;;;;;;;;;;;;;;;;;;5026460;28;19966;-43
2023/01/11 14:17:35;;;;;;;;;;;;;;;;;;5023967;28;20074;-48
2023/01/11 14:20:19;;;;;;;;;;;;;;;;;;5027418;28;20018;-46
2023/01/11 14:22:54;;;;;;;;;;;;;;;;;;5025622;28;19928;-44
2023/01/11 14:25:29;;;;;;;;;;;;;;;;;;5025727;28;19967;-44
2023/01/11 14:27:57;;;;;;;;;;;;;;;;;;5025384;28;19927;-43
2023/01/11 14:30:40;;;;;;;;;;;;;;;;;;5025920;28;19925;-45
2023/01/11 14:33:23;;;;;;;;;;;;;;;;;;5020646;28;19964;-46
2023/01/11 14:35:58;;;;;;;;;;;;;;;;;;5025997;28;20506;-43
2023/01/11 14:38:26;;;;;;;;;;;;;;;;;;5013610;28;20031;-43
2023/01/11 14:41:10;;;;;;;;;;;;;;;;;;5004108;28;19936;-42
2023/01/11 14:43:44;;;;;;;;;;;;;;;;;;5004098;28;19921;-44
2023/01/11 14:46:12;;;;;;;;;;;;;;;;;;5001929;28;20015;-49
2023/01/11 14:48:50;;;;;;;;;;;;;;;;;;5003054;28;19921;-44
2023/01/11 14:51:15;;;;;;;;;;;;;;;;;;5004563;28;19917;-43
2023/01/11 14:53:45;;;;;;;;;;;;;;;;;;5001552;28;19929;-43
2023/01/11 14:56:29;;;;;;;;;;;;;;;;;;5004872;28;19928;-44
2023/01/11 14:59:17;;;;;;;;;;;;;;;;;;5006233;28;19926;-43
2023/01/11 15:02:01;;;;;;;;;;;;;;;;;;4999906;28;20004;-47
2023/01/11 15:04:27;;;;;;;;;;;;;;;;;;5002246;28;19930;-43
2023/01/11 15:06:53;;;;;;;;;;;;;;;;;;5005812;28;20369;-43
2023/01/11 15:09:37;;;;;;;;;;;;;;;;;;5006039;28;19949;-45
2023/01/11 15:12:14;;;;;;;;;;;;;;;;;;5006504;28;19926;-43
2023/01/11 15:14:45;;;;;;;;;;;;;;;;;;5025140;28;19927;-42
2023/01/11 15:20:04;;;;;;;;;;;;;;;;;;5005282;28;21203;-43
2023/01/11 15:22:30;;;;;;;;;;;;;;;;;;5004887;28;19921;-43
2023/01/11 15:25:22;;;;;;;;;;;;;;;;;;5006111;28;20380;-43
2023/01/11 15:27:47;;;;;;;;;;;;;;;;;;5005529;28;19932;-43
2023/01/11 15:30:28;;;;;;;;;;;;;;;;;;5005289;28;19922;-42
2023/01/11 15:33:13;;;;;;;;;;;;;;;;;;5005722;28;20008;-44
2023/01/11 15:35:38;;;;;;;;;;;;;;;;;;5019242;28;19925;-46
2023/01/11 15:38:14;;;;;;;;;;;;;;;;;;5015450;28;19925;-46
2023/01/11 15:40:45;;;;;;;;;;;;;;;;;;5026293;28;19996;-43
2023/01/11 15:43:13;;;;;;;;;;;;;;;;;;5026803;28;20444;-42
2023/01/11 15:46:51;;;;;;;;;;;;;;;;;;5026040;28;19920;-43
2023/01/11 15:48:44;;;;;;;;;;;;;;;;;;5024179;28;19928;-43
2023/01/11 15:51:27;;;;;;;;;;;;;;;;;;5007928;28;19929;-43
2023/01/11 15:53:59;;;;;;;;;;;;;;;;;;5012741;28;19933;-43
2023/01/11 15:56:39;;;;;;;;;;;;;;;;;;5011143;28;19917;-43
2023/01/11 15:59:31;;;;;;;;;;;;;;;;;;5011762;28;20297;-47
2023/01/11 16:02:11;;;;;;;;;;;;;;;;;;4988025;28;19940;-42
2023/01/11 16:04:43;;;;;;;;;;;;;;;;;;5012232;28;19925;-45
2023/01/11 16:07:34;;;;;;;;;;;;;;;;;;5003604;28;19961;-43
2023/01/11 16:10:09;;;;;;;;;;;;;;;;;;4931767;29;20410;-43
2023/01/11 16:12:44;;;;;;;;;;;;;;;;;;4937385;29;19922;-43
2023/01/11 16:15:21;;;;;;;;;;;;;;;;;;4917229;29;20544;-42
2023/01/11 16:17:46;;;;;;;;;;;;;;;;;;4934081;29;20012;-42
2023/01/11 16:20:17;;;;;;;;;;;;;;;;;;4932739;29;20359;-45
2023/01/11 16:22:46;;;;;;;;;;;;;;;;;;4942292;29;19931;-42
2023/01/11 16:25:12;;;;;;;;;;;;;;;;;;4938107;29;19918;-43
2023/01/11 16:27:38;;;;;;;;;;;;;;;;;;4933545;28;19949;-43
2023/01/11 16:30:03;;;;;;;;;;;;;;;;;;4965841;28;19968;-48
2023/01/11 16:32:33;;;;;;;;;;;;;;;;;;4966369;28;20035;-44
2023/01/11 16:34:59;;;;;;;;;;;;;;;;;;4964850;28;20016;-44
2023/01/11 16:37:30;;;;;;;;;;;;;;;;;;4966765;28;19918;-42
2023/01/11 16:40:15;;;;;;;;;;;;;;;;;;4966656;28;19926;-45
2023/01/11 16:42:45;;;;;;;;;;;;;;;;;;4959273;28;20379;-48
2023/01/11 16:45:21;;;;;;;;;;;;;;;;;;4965177;28;19930;-43
2023/01/11 16:48:05;;;;;;;;;;;;;;;;;;5022532;28;19917;-45
2023/01/11 16:50:32;;;;;;;;;;;;;;;;;;5027866;28;20007;-43
2023/01/11 16:53:04;;;;;;;;;;;;;;;;;;5028391;28;19936;-44
2023/01/11 16:55:35;;;;;;;;;;;;;;;;;;5029777;28;19959;-45
2023/01/11 16:58:17;;;;;;;;;;;;;;;;;;5029058;28;19921;-44
2023/01/11 17:00:53;;;;;;;;;;;;;;;;;;5025863;28;20594;-45
2023/01/11 17:03:21;;;;;;;;;;;;;;;;;;5028554;28;19925;-50
2023/01/11 17:05:52;;;;;;;;;;;;;;;;;;5029114;28;19963;-44
2023/01/11 17:08:34;;;;;;;;;;;;;;;;;;5022938;28;19948;-46
2023/01/11 17:11:02;;;;;;;;;;;;;;;;;;5024581;28;19956;-45
2023/01/11 17:13:53;;;;;;;;;;;;;;;;;;5031236;28;19921;-46
2023/01/11 17:16:34;;;;;;;;;;;;;;;;;;5024536;28;19917;-43
2023/01/11 17:19:04;;;;;;;;;;;;;;;;;;5027935;28;19929;-44
2023/01/11 17:21:29;;;;;;;;;;;;;;;;;;5024377;28;19928;-43
2023/01/11 17:24:03;;;;;;;;;;;;;;;;;;5024392;28;19921;-46
2023/01/11 17:26:35;;;;;;;;;;;;;;;;;;5027571;28;19965;-47
2023/01/11 17:29:01;;;;;;;;;;;;;;;;;;5028167;28;19943;-50
2023/01/11 17:31:38;;;;;;;;;;;;;;;;;;5029542;28;19917;-50
2023/01/11 17:34:24;;;;;;;;;;;;;;;;;;5027002;28;19927;-43
2023/01/11 17:36:50;;;;;;;;;;;;;;;;;;5022617;28;19917;-46
2023/01/11 17:39:31;;;;;;;;;;;;;;;;;;5026671;28;19974;-44
2023/01/11 17:47:27;;;;;;;;;;;;;;;;;;5022834;28;22735;-41